createdAt,value
2023-03-04T00:00:08.834Z,8.99
2023-03-04T00:02:36.802Z,8.84
2023-03-04T00:05:04.975Z,8.79
2023-03-04T00:07:32.580Z,8.80
2023-03-04T00:10:02.359Z,8.84
2023-03-04T00:12:30.610Z,8.86
2023-03-04T00:14:58.507Z,8.86
2023-03-04T00:17:26.667Z,8.88
2023-03-04T00:19:54.646Z,8.89
2023-03-04T00:22:22.825Z,8.89
2023-03-04T00:24:51.208Z,8.84
2023-03-04T00:27:19.279Z,8.76
2023-03-04T00:29:47.126Z,8.67
2023-03-04T00:32:16.330Z,8.66
2023-03-04T00:34:44.478Z,8.62
2023-03-04T00:37:12.541Z,8.56
2023-03-04T00:39:40.040Z,8.46
2023-03-04T00:42:08.155Z,8.43
2023-03-04T00:44:36.390Z,8.44
2023-03-04T00:47:04.586Z,8.44
2023-03-04T00:49:32.451Z,8.49
2023-03-04T00:52:00.413Z,8.52
2023-03-04T00:54:28.819Z,8.44
2023-03-04T00:56:57.314Z,8.33
2023-03-04T00:59:25.042Z,8.22
2023-03-04T01:01:53.541Z,8.13
2023-03-04T01:04:21.528Z,8.09
2023-03-04T01:06:49.921Z,8.06
2023-03-04T01:09:17.365Z,8.08
2023-03-04T01:11:44.992Z,8.10
2023-03-04T01:14:15.999Z,8.14
2023-03-04T01:16:43.978Z,8.20
2023-03-04T01:19:12.144Z,8.20
2023-03-04T01:21:40.130Z,8.25
2023-03-04T01:24:08.469Z,8.26
2023-03-04T01:26:39.342Z,8.31
2023-03-04T01:29:06.903Z,8.35
2023-03-04T01:31:37.134Z,8.32
2023-03-04T01:34:04.780Z,8.24
2023-03-04T01:36:32.768Z,8.26
2023-03-04T01:39:00.213Z,8.31
2023-03-04T01:41:30.936Z,8.36
2023-03-04T01:44:00.853Z,8.38
2023-03-04T01:46:29.766Z,8.41
2023-03-04T01:48:57.489Z,8.46
2023-03-04T01:51:24.794Z,8.51
2023-03-04T01:53:53.655Z,8.55
2023-03-04T01:56:45.104Z,8.63
2023-03-04T01:59:17.024Z,8.65
2023-03-04T02:02:08.336Z,8.73
2023-03-04T02:04:35.927Z,8.77
2023-03-04T02:07:04.366Z,8.84
2023-03-04T02:09:31.156Z,8.86
2023-03-04T02:11:59.036Z,8.88
2023-03-04T02:14:26.227Z,8.79
2023-03-04T02:16:53.673Z,8.58
2023-03-04T02:19:30.054Z,8.45
2023-03-04T02:21:57.982Z,8.34
2023-03-04T02:24:31.754Z,8.28
2023-03-04T02:27:00.585Z,8.33
2023-03-04T02:29:27.735Z,8.39
2023-03-04T02:31:55.611Z,8.42
2023-03-04T02:34:24.853Z,8.51
2023-03-04T02:36:52.525Z,8.54
2023-03-04T02:39:26.452Z,8.54
2023-03-04T02:41:54.644Z,8.54
2023-03-04T02:44:24.534Z,8.48
2023-03-04T02:46:51.821Z,8.44
2023-03-04T02:49:19.122Z,8.45
2023-03-04T02:51:47.186Z,8.48
2023-03-04T02:54:19.566Z,8.39
2023-03-04T02:57:09.154Z,8.26
2023-03-04T02:59:37.944Z,8.23
2023-03-04T03:02:05.575Z,8.12
2023-03-04T03:04:32.795Z,8.12
2023-03-04T03:07:00.724Z,8.02
2023-03-04T03:09:28.903Z,7.99
2023-03-04T03:11:56.782Z,7.98
2023-03-04T03:14:25.692Z,7.99
2023-03-04T03:16:54.169Z,8.01
2023-03-04T03:19:25.643Z,7.99
2023-03-04T03:21:53.689Z,7.96
2023-03-04T03:24:21.658Z,7.91
2023-03-04T03:26:50.190Z,7.87
2023-03-04T03:29:18.468Z,7.89
2023-03-04T03:31:46.713Z,7.86
2023-03-04T03:34:14.761Z,7.82
2023-03-04T03:36:45.969Z,7.81
2023-03-04T03:39:15.648Z,7.81
2023-03-04T03:41:43.408Z,7.80
2023-03-04T03:44:11.116Z,7.81
2023-03-04T03:46:39.039Z,7.82
2023-03-04T03:49:07.117Z,7.84
2023-03-04T03:51:34.637Z,7.81
2023-03-04T03:54:02.736Z,7.76
2023-03-04T03:56:30.871Z,7.71
2023-03-04T03:58:59.023Z,7.59
2023-03-04T04:01:27.041Z,7.56
2023-03-04T04:03:55.076Z,7.58
2023-03-04T04:06:23.695Z,7.59
2023-03-04T04:08:51.636Z,7.57
2023-03-04T04:11:19.545Z,7.56
2023-03-04T04:13:47.577Z,7.53
2023-03-04T04:16:15.941Z,7.47
2023-03-04T04:18:44.848Z,7.38
2023-03-04T04:21:13.070Z,7.25
2023-03-04T04:23:40.928Z,7.10
2023-03-04T04:26:09.162Z,7.01
2023-03-04T04:28:37.128Z,6.96
2023-03-04T04:31:09.228Z,6.93
2023-03-04T04:33:37.217Z,6.90
2023-03-04T04:36:06.289Z,6.85
2023-03-04T04:38:34.263Z,6.84
2023-03-04T04:41:02.280Z,6.86
2023-03-04T04:43:30.269Z,6.82
2023-03-04T04:46:00.439Z,6.77
2023-03-04T04:48:34.900Z,6.75
2023-03-04T04:51:02.754Z,6.75
2023-03-04T04:53:31.081Z,6.72
2023-03-04T04:55:59.365Z,6.73
2023-03-04T04:58:27.431Z,6.75
2023-03-04T05:00:58.250Z,6.69
2023-03-04T05:03:26.347Z,6.58
2023-03-04T05:05:54.466Z,6.43
2023-03-04T05:08:22.511Z,6.30
2023-03-04T05:10:50.604Z,6.22
2023-03-04T05:13:19.564Z,6.19
2023-03-04T05:15:47.651Z,6.16
2023-03-04T05:18:15.199Z,6.20
2023-03-04T05:20:42.765Z,6.23
2023-03-04T05:23:10.766Z,6.23
2023-03-04T05:25:38.786Z,6.25
2023-03-04T05:28:07.355Z,6.25
2023-03-04T05:30:35.187Z,6.23
2023-03-04T05:33:02.742Z,6.24
2023-03-04T05:35:30.376Z,6.18
2023-03-04T05:37:58.575Z,6.06
2023-03-04T05:40:27.246Z,6.00
2023-03-04T05:42:58.966Z,6.01
2023-03-04T05:45:26.671Z,6.08
2023-03-04T05:47:54.694Z,6.19
2023-03-04T05:50:23.332Z,6.28
2023-03-04T05:52:51.904Z,6.37
2023-03-04T05:55:20.415Z,6.43
2023-03-04T05:57:48.839Z,6.44
2023-03-04T06:00:18.770Z,6.45
2023-03-04T06:02:46.808Z,6.48
2023-03-04T06:05:14.965Z,6.46
2023-03-04T06:07:45.536Z,6.48
2023-03-04T06:10:14.994Z,6.46
2023-03-04T06:12:42.798Z,6.48
2023-03-04T06:15:13.928Z,6.50
2023-03-04T06:17:44.706Z,6.50
2023-03-04T06:20:14.292Z,6.58
2023-03-04T06:22:41.821Z,6.60
2023-03-04T06:25:11.467Z,6.51
2023-03-04T06:27:39.563Z,6.49
2023-03-04T06:30:11.965Z,6.59
2023-03-04T06:32:40.423Z,6.66
2023-03-04T06:35:11.302Z,6.60
2023-03-04T06:37:39.535Z,6.71
2023-03-04T06:40:08.403Z,6.84
2023-03-04T06:42:44.785Z,6.99
2023-03-04T06:45:14.526Z,7.07
2023-03-04T06:47:43.277Z,7.18
2023-03-04T06:50:14.011Z,7.29
2023-03-04T06:52:41.858Z,7.29
2023-03-04T06:55:13.085Z,7.32
2023-03-04T06:57:41.489Z,7.35
2023-03-04T07:00:13.287Z,7.47
2023-03-04T07:02:40.856Z,7.55
2023-03-04T07:05:10.131Z,7.60
2023-03-04T07:07:38.053Z,7.69
2023-03-04T07:10:07.176Z,7.80
2023-03-04T07:27:14.406Z,8.55
2023-03-04T07:29:42.819Z,8.66
2023-03-04T07:32:11.609Z,8.75
2023-03-04T07:34:40.844Z,8.86
2023-03-04T07:37:10.407Z,8.97
2023-03-04T07:39:38.317Z,9.10
2023-03-04T07:42:06.899Z,9.20
2023-03-04T07:44:35.447Z,9.34
2023-03-04T07:47:03.785Z,9.46
2023-03-04T07:49:32.784Z,9.50
2023-03-04T07:52:05.275Z,9.62
2023-03-04T07:54:53.397Z,9.69
2023-03-04T07:57:20.918Z,9.73
2023-03-04T07:59:49.040Z,9.82
2023-03-04T08:02:16.875Z,9.94
2023-03-04T08:04:44.926Z,10.04
2023-03-04T08:07:13.032Z,10.15
2023-03-04T08:09:42.499Z,10.20
2023-03-04T08:12:10.107Z,10.29
2023-03-04T08:14:37.669Z,10.42
2023-03-04T08:17:05.163Z,10.52
2023-03-04T08:19:32.948Z,10.65
2023-03-04T08:22:00.947Z,10.76
2023-03-04T08:24:29.623Z,10.88
2023-03-04T08:26:57.065Z,10.98
2023-03-04T08:29:24.741Z,11.10
2023-03-04T08:32:08.147Z,11.21
2023-03-04T08:34:39.333Z,11.34
2023-03-04T08:37:07.235Z,11.52
2023-03-04T08:39:36.161Z,11.57
2023-03-04T08:42:04.035Z,11.67
2023-03-04T08:44:34.606Z,11.79
2023-03-04T08:47:02.682Z,11.89
2023-03-04T08:49:30.567Z,11.96
2023-03-04T08:51:58.000Z,12.02
2023-03-04T08:54:25.589Z,12.08
2023-03-04T08:56:53.908Z,12.13
2023-03-04T08:59:22.045Z,12.29
2023-03-04T09:01:49.986Z,12.38
2023-03-04T09:04:17.732Z,12.44
2023-03-04T09:06:45.680Z,12.53
2023-03-04T09:09:13.577Z,12.61
2023-03-04T09:11:41.165Z,12.73
2023-03-04T09:14:09.146Z,12.78
2023-03-04T09:16:37.465Z,12.87
2023-03-04T09:19:05.154Z,12.89
2023-03-04T09:21:33.049Z,12.96
2023-03-04T09:24:01.795Z,13.05
2023-03-04T09:26:29.893Z,13.17
2023-03-04T09:28:58.791Z,13.23
2023-03-04T09:31:26.888Z,13.37
2023-03-04T09:33:54.734Z,13.35
2023-03-04T09:36:21.914Z,13.44
2023-03-04T09:38:49.664Z,13.47
2023-03-04T09:41:25.424Z,13.69
2023-03-04T09:43:53.789Z,13.72
2023-03-04T09:46:32.865Z,13.72
2023-03-04T09:49:00.440Z,13.90
2023-03-04T09:51:46.269Z,13.88
2023-03-04T09:54:23.405Z,13.98
2023-03-04T09:56:50.451Z,14.07
2023-03-04T09:59:43.816Z,14.20
2023-03-04T10:02:22.110Z,14.28
2023-03-04T10:04:54.581Z,14.27
2023-03-04T10:07:27.334Z,14.30
2023-03-04T10:10:03.602Z,14.41
2023-03-04T10:12:31.992Z,14.56
2023-03-04T10:15:04.997Z,14.57
2023-03-04T10:17:43.365Z,14.46
2023-03-04T10:20:15.208Z,14.54
2023-03-04T10:22:53.634Z,14.54
2023-03-04T10:25:26.827Z,14.65
2023-03-04T10:28:02.996Z,14.61
2023-03-04T10:30:48.934Z,14.65
2023-03-04T10:33:18.257Z,14.65
2023-03-04T10:35:50.682Z,14.65
2023-03-04T10:38:21.671Z,14.73
2023-03-04T10:40:48.436Z,14.71
2023-03-04T10:43:20.213Z,14.73
2023-03-04T10:45:46.994Z,14.78
2023-03-04T10:48:23.506Z,14.85
2023-03-04T10:50:51.122Z,14.96
2023-03-04T10:54:09.324Z,14.90
2023-03-04T10:56:37.228Z,15.01
2023-03-04T10:59:36.189Z,15.10
2023-03-04T11:02:17.928Z,15.20
2023-03-04T11:04:55.791Z,15.46
2023-03-04T11:07:34.104Z,15.82
2023-03-04T11:10:12.194Z,16.26
2023-03-04T11:12:39.744Z,16.51
2023-03-04T11:15:24.404Z,16.71
2023-03-04T11:18:06.155Z,16.94
2023-03-04T11:20:33.827Z,17.11
2023-03-04T11:23:33.088Z,17.27
2023-03-04T11:26:02.965Z,17.09
2023-03-04T11:28:52.848Z,17.17
2023-03-04T11:31:48.556Z,17.15
2023-03-04T11:34:27.663Z,17.26
2023-03-04T11:37:28.608Z,17.09
2023-03-04T11:40:30.130Z,17.43
2023-03-04T11:42:59.891Z,17.54
2023-03-04T11:46:06.068Z,17.56
2023-03-04T11:49:04.834Z,17.50
2023-03-04T11:51:40.802Z,17.76
2023-03-04T11:54:49.744Z,17.91
2023-03-04T11:57:46.922Z,17.48
2023-03-04T12:00:35.927Z,17.34
2023-03-04T12:03:22.473Z,17.26
2023-03-04T12:06:12.642Z,17.23
2023-03-04T12:08:51.481Z,17.40
2023-03-04T12:11:40.340Z,17.71
2023-03-04T12:14:23.037Z,18.21
2023-03-04T12:16:53.043Z,18.54
2023-03-04T12:19:33.497Z,18.78
2023-03-04T12:22:09.073Z,19.24
2023-03-04T12:24:41.916Z,19.53
2023-03-04T12:27:24.787Z,19.52
2023-03-04T12:30:05.659Z,19.60
2023-03-04T12:32:50.952Z,19.87
2023-03-04T12:35:25.341Z,20.15
2023-03-04T12:38:02.976Z,20.33
2023-03-04T12:41:00.470Z,20.60
2023-03-04T12:43:42.058Z,20.51
2023-03-04T12:46:27.840Z,20.70
2023-03-04T12:49:18.080Z,20.97
2023-03-04T12:52:12.713Z,20.91
2023-03-04T12:55:01.462Z,21.24
2023-03-04T12:57:33.166Z,21.23
2023-03-04T13:00:15.397Z,21.08
2023-03-04T13:02:48.186Z,21.40
2023-03-04T13:05:33.551Z,21.45
2023-03-04T13:08:22.004Z,21.58
2023-03-04T13:10:50.922Z,21.49
2023-03-04T13:13:41.041Z,21.28
2023-03-04T13:16:08.140Z,21.48
2023-03-04T13:18:36.613Z,21.73
2023-03-04T13:21:12.747Z,21.90
2023-03-04T13:23:40.489Z,22.23
2023-03-04T13:26:30.475Z,21.91
2023-03-04T13:29:19.355Z,21.87
2023-03-04T13:32:12.000Z,22.21
2023-03-04T13:34:42.070Z,22.08
2023-03-04T13:37:30.052Z,21.82
2023-03-04T13:40:23.453Z,21.65
2023-03-04T13:42:51.711Z,21.84
2023-03-04T13:45:36.856Z,21.71
2023-03-04T13:48:05.825Z,21.89
2023-03-04T13:50:37.444Z,22.55
2023-03-04T13:53:23.897Z,22.04
2023-03-04T13:56:05.285Z,21.81
2023-03-04T13:58:32.848Z,21.89
2023-03-04T14:01:00.779Z,22.34
2023-03-04T14:03:30.217Z,22.37
2023-03-04T14:06:30.571Z,22.24
2023-03-04T14:08:58.562Z,22.16
2023-03-04T14:11:28.367Z,21.85
2023-03-04T14:13:56.689Z,21.17
2023-03-04T14:16:26.372Z,20.79
2023-03-04T14:19:01.497Z,20.89
2023-03-04T14:21:29.142Z,21.01
2023-03-04T14:24:02.474Z,20.97
2023-03-04T14:26:31.188Z,20.86
2023-03-04T14:28:59.746Z,20.94
2023-03-04T14:31:30.712Z,21.16
2023-03-04T14:34:02.423Z,21.33
2023-03-04T14:36:33.166Z,21.12
2023-03-04T14:39:02.762Z,21.20
2023-03-04T14:41:40.502Z,21.52
2023-03-04T14:44:29.122Z,21.77
2023-03-04T14:47:08.356Z,21.96
2023-03-04T14:49:39.990Z,22.06
2023-03-04T14:52:07.752Z,22.02
2023-03-04T14:54:39.477Z,21.62
2023-03-04T14:57:36.213Z,21.32
2023-03-04T15:00:22.420Z,21.18
2023-03-04T15:02:50.902Z,20.79
2023-03-04T15:05:32.605Z,20.43
2023-03-04T15:08:05.261Z,20.17
2023-03-04T15:10:36.556Z,20.13
2023-03-04T15:13:07.750Z,20.22
2023-03-04T15:15:45.051Z,20.14
2023-03-04T15:18:30.405Z,20.24
2023-03-04T15:20:58.131Z,20.05
2023-03-04T15:23:26.243Z,20.08
2023-03-04T15:25:54.479Z,19.93
2023-03-04T15:28:21.274Z,20.10
2023-03-04T15:30:49.449Z,20.35
2023-03-04T15:33:17.900Z,20.91
2023-03-04T15:35:55.362Z,21.04
2023-03-04T15:38:22.684Z,21.24
2023-03-04T15:40:53.962Z,21.44
2023-03-04T15:43:22.931Z,21.81
2023-03-04T15:45:50.510Z,21.91
2023-03-04T15:48:18.638Z,21.72
2023-03-04T15:50:51.807Z,21.81
2023-03-04T15:53:45.817Z,21.58
2023-03-04T15:56:48.167Z,21.52
2023-03-04T15:59:15.496Z,20.78
2023-03-04T16:01:42.590Z,20.25
2023-03-04T16:04:17.230Z,19.84
2023-03-04T16:06:45.873Z,19.53
2023-03-04T16:09:15.213Z,19.29
2023-03-04T16:11:47.018Z,19.17
2023-03-04T16:14:14.749Z,18.69
2023-03-04T16:16:47.033Z,18.47
2023-03-04T16:19:15.616Z,18.44
2023-03-04T16:21:43.594Z,18.43
2023-03-04T16:24:19.269Z,18.61
2023-03-04T16:26:46.553Z,18.56
2023-03-04T16:29:14.131Z,18.53
2023-03-04T16:31:42.323Z,18.69
2023-03-04T16:34:09.962Z,18.77
2023-03-04T16:36:37.908Z,18.48
2023-03-04T16:39:07.267Z,18.22
2023-03-04T16:41:37.655Z,17.96
2023-03-04T16:44:06.945Z,17.83
2023-03-04T16:46:34.512Z,17.52
2023-03-04T16:49:02.091Z,17.10
2023-03-04T16:51:31.897Z,16.75
2023-03-04T16:54:02.271Z,16.46
2023-03-04T16:56:30.454Z,16.14
2023-03-04T16:58:57.879Z,15.80
2023-03-04T17:01:29.282Z,15.47
2023-03-04T17:03:56.968Z,15.28
2023-03-04T17:06:25.167Z,15.14
2023-03-04T17:08:55.616Z,14.95
2023-03-04T17:11:24.088Z,14.79
2023-03-04T17:13:51.641Z,14.78
2023-03-04T17:16:18.905Z,14.66
2023-03-04T17:18:46.169Z,14.53
2023-03-04T17:21:15.676Z,14.35
2023-03-04T17:23:43.644Z,14.21
2023-03-04T17:26:11.782Z,14.12
2023-03-04T17:28:39.546Z,14.09
2023-03-04T17:31:12.056Z,14.00
2023-03-04T17:33:39.838Z,13.96
2023-03-04T17:36:11.819Z,13.91
2023-03-04T17:38:39.944Z,13.79
2023-03-04T17:41:10.406Z,13.70
2023-03-04T17:43:38.517Z,13.67
2023-03-04T17:46:07.460Z,13.67
2023-03-04T17:48:35.451Z,13.63
2023-03-04T17:51:03.069Z,13.60
2023-03-04T17:53:34.380Z,13.51
2023-03-04T17:56:02.688Z,13.45
2023-03-04T17:58:30.522Z,13.40
2023-03-04T18:01:06.480Z,13.37
2023-03-04T18:03:34.570Z,13.33
2023-03-04T18:06:02.297Z,13.29
2023-03-04T18:08:30.322Z,13.23
2023-03-04T18:10:58.454Z,13.14
2023-03-04T18:13:26.099Z,13.00
2023-03-04T18:15:53.669Z,12.95
2023-03-04T18:18:21.843Z,12.87
2023-03-04T18:20:49.803Z,12.85
2023-03-04T18:23:18.985Z,12.84
2023-03-04T18:25:46.785Z,12.83
2023-03-04T18:28:14.786Z,12.87
2023-03-04T18:30:43.872Z,12.89
2023-03-04T18:33:11.903Z,12.88
2023-03-04T18:35:39.573Z,12.87
2023-03-04T18:38:08.085Z,12.78
2023-03-04T18:40:36.160Z,12.68
2023-03-04T18:43:04.643Z,12.60
2023-03-04T18:45:32.579Z,12.50
2023-03-04T18:48:00.268Z,12.46
2023-03-04T18:50:27.950Z,12.35
2023-03-04T18:52:56.197Z,12.29
2023-03-04T18:55:23.370Z,12.31
2023-03-04T18:57:52.530Z,12.30
2023-03-04T19:00:21.229Z,12.21
2023-03-04T19:02:56.794Z,12.13
2023-03-04T19:05:27.502Z,12.09
2023-03-04T19:07:55.532Z,12.11
2023-03-04T19:10:23.922Z,12.03
2023-03-04T19:12:51.695Z,11.87
2023-03-04T19:15:20.204Z,11.73
2023-03-04T19:17:48.193Z,11.57
2023-03-04T19:20:16.487Z,11.47
2023-03-04T19:22:44.575Z,11.38
2023-03-04T19:25:11.960Z,11.28
2023-03-04T19:27:39.873Z,11.28
2023-03-04T19:30:09.553Z,11.33
2023-03-04T19:32:37.054Z,11.38
2023-03-04T19:35:05.531Z,11.39
2023-03-04T19:37:33.640Z,11.29
2023-03-04T19:40:03.439Z,11.21
2023-03-04T19:44:07.726Z,11.29
2023-03-04T20:02:37.254Z,11.13
2023-03-04T20:55:37.636Z,10.15
2023-03-04T21:17:35.013Z,9.87
2023-03-04T21:32:57.410Z,9.42
